»·PEaware :: EZY251 LXGB-EGCC

EZY251 :: LXGB-EGCC

FLIGHT INFORMATION

Flight Status: Arrived
Operator:
EasyJet
More flights by this operator :: More flights under this callsign
Pilot: Anonymous 14085 (14085)
Aircraft: AIRBUS A319
(A319)
More flights by this aircraft type
Origin: LXGB Gibraltar AB
Gibraltar
Destination: EGCC Manchester
United Kingdom
More flights between these airports :: More routes between these airports
Route: PIMOS UN869 BLN UN865 DELOG UN864 MONTY
File this flight plan on PilotEdge
Remarks: RMK / SIMBRIEF
Altitude:
(Current/Filed)
36,000ft
Speed:
(Current/Filed)
455kts
Departed: 21-Sep-20 03:02 PM
Arrived: 21-Sep-20 05:47 PM
Distance/Time
Traveled:
1041nm/2:44
Distance/Time
To Go:
Arrived

Flight Plot

Page will automatically refresh every two minutes.

Flight plan parsing failed; only flown route is shown


Map Options




Map Legend


Flown Route
Filed Route
Departure Airport
Arrival Airport
Navaid (VOR, NDB)
Fix

Horizontal Profiles

Position Reports

Time Latitude Longitude Heading Altitude Ground
Speed
21-Sep-20 14:45 36.153039 -5.345753 357 15ft 0kts
21-Sep-20 14:46 36.153039 -5.345753 357 15ft 0kts
21-Sep-20 14:47 36.153039 -5.345753 357 15ft 0kts
21-Sep-20 14:48 36.153039 -5.345753 357 15ft 0kts
21-Sep-20 14:49 36.153039 -5.345753 357 15ft 0kts
21-Sep-20 14:50 36.153039 -5.345753 357 15ft 0kts
21-Sep-20 14:51 36.153039 -5.345753 357 15ft 0kts
21-Sep-20 14:52 36.152849 -5.345742 357 15ft 2kts
21-Sep-20 14:53 36.152332 -5.345701 311 15ft 1kts
21-Sep-20 14:54 36.152336 -5.345049 268 15ft 2kts
21-Sep-20 14:55 36.152381 -5.344382 240 15ft 2kts
21-Sep-20 14:56 36.152628 -5.344148 198 15ft 0kts
21-Sep-20 14:57 36.152623 -5.344150 198 15ft 0kts
21-Sep-20 14:58 36.152395 -5.343602 87 15ft 4kts
21-Sep-20 14:59 36.151464 -5.341716 86 15ft 10kts
21-Sep-20 15:00 36.151534 -5.340687 266 13ft 0kts
21-Sep-20 15:01 36.150530 -5.367369 261 764ft 142kts
21-Sep-20 15:02 36.124995 -5.377995 107 2908ft 157kts
21-Sep-20 15:03 36.128869 -5.313899 87 4454ft 219kts
21-Sep-20 15:04 36.133680 -5.226904 87 6464ft 287kts
21-Sep-20 15:05 36.138939 -5.125925 87 9646ft 302kts
21-Sep-20 15:06 36.144510 -5.015130 87 11506ft 357kts
21-Sep-20 15:07 36.166066 -4.886183 48 12749ft 422kts
21-Sep-20 15:08 36.264491 -4.804156 29 15258ft 437kts
21-Sep-20 15:09 36.369226 -4.722479 29 17608ft 452kts
21-Sep-20 15:10 36.476888 -4.637735 28 19664ft 465kts
21-Sep-20 15:11 36.587086 -4.550651 28 21525ft 477kts
21-Sep-20 15:12 36.700387 -4.460758 27 23159ft 489kts
21-Sep-20 15:13 36.816930 -4.370967 22 24708ft 495kts
21-Sep-20 15:14 36.941476 -4.309154 3 26713ft 471kts
21-Sep-20 15:15 37.061080 -4.329678 326 29181ft 412kts
21-Sep-20 15:16 37.131033 -4.424695 287 31722ft 351kts
21-Sep-20 15:17 37.124299 -4.534718 244 34266ft 311kts
21-Sep-20 15:18 37.053417 -4.590897 198 35712ft 332kts
21-Sep-20 15:19 36.953602 -4.557238 152 34847ft 425kts
21-Sep-20 15:20 36.878463 -4.432400 111 34294ft 485kts
21-Sep-20 15:21 36.871630 -4.262808 73 34366ft 500kts
21-Sep-20 15:22 36.939222 -4.118634 34 35129ft 471kts
21-Sep-20 15:23 37.050076 -4.061993 358 35683ft 428kts
21-Sep-20 15:24 37.167515 -4.010222 10 35831ft 454kts
21-Sep-20 15:25 37.288006 -3.961161 8 36094ft 460kts
21-Sep-20 15:26 37.410166 -3.914011 8 36165ft 460kts
21-Sep-20 15:27 37.531950 -3.867045 8 36165ft 460kts
21-Sep-20 15:55 40.815336 -3.569951 347 36138ft 433kts
21-Sep-20 15:56 40.935851 -3.582479 347 36138ft 438kts
21-Sep-20 15:57 41.057265 -3.595270 350 36137ft 436kts
21-Sep-20 15:58 41.178528 -3.605826 355 36138ft 441kts
21-Sep-20 15:59 41.300778 -3.608674 355 36138ft 441kts
21-Sep-20 16:00 41.423392 -3.611683 355 36160ft 441kts
21-Sep-20 16:01 41.545847 -3.613807 356 36186ft 442kts
21-Sep-20 16:02 41.668432 -3.613702 356 36191ft 442kts
21-Sep-20 16:03 41.791089 -3.613715 356 36188ft 442kts
21-Sep-20 16:04 41.913830 -3.613711 356 36191ft 442kts
21-Sep-20 16:05 42.036092 -3.614691 354 36190ft 441kts
21-Sep-20 16:06 42.158457 -3.622603 353 36190ft 440kts
21-Sep-20 16:07 42.280344 -3.630520 354 36191ft 441kts
21-Sep-20 16:07 42.381701 -3.640257 349 36189ft 438kts
21-Sep-20 16:09 42.522310 -3.668105 348 36191ft 438kts
21-Sep-20 16:09 42.622560 -3.688082 348 36191ft 438kts
21-Sep-20 16:10 42.743382 -3.710722 349 36191ft 439kts
21-Sep-20 16:11 42.864195 -3.731083 349 36179ft 439kts
21-Sep-20 16:12 42.984290 -3.751954 353 36155ft 437kts
21-Sep-20 16:13 43.107227 -3.772765 353 36140ft 453kts
21-Sep-20 16:14 43.233024 -3.794361 353 36138ft 458kts
21-Sep-20 16:15 43.358923 -3.816184 353 36138ft 458kts
21-Sep-20 16:16 43.485210 -3.838173 353 36138ft 458kts
21-Sep-20 16:17 43.611520 -3.860258 353 36138ft 458kts
21-Sep-20 16:18 43.737376 -3.882352 353 36138ft 458kts
21-Sep-20 16:19 43.863785 -3.904653 353 36138ft 458kts
21-Sep-20 16:20 43.989819 -3.926972 353 36138ft 458kts
21-Sep-20 16:21 44.115867 -3.949403 353 36138ft 458kts
21-Sep-20 16:22 44.241902 -3.971889 353 36138ft 458kts
21-Sep-20 16:23 44.368554 -3.980351 4 36139ft 456kts
21-Sep-20 16:24 44.494313 -3.961523 7 36138ft 456kts
21-Sep-20 16:25 44.620270 -3.941387 7 36138ft 456kts
21-Sep-20 16:26 44.745958 -3.921376 7 36138ft 456kts
21-Sep-20 16:27 44.872468 -3.901172 7 36139ft 462kts
21-Sep-20 16:28 44.999962 -3.880800 7 36139ft 461kts
21-Sep-20 16:29 45.126236 -3.861823 7 36141ft 451kts
21-Sep-20 16:30 45.250796 -3.847768 7 36138ft 449kts
21-Sep-20 16:31 45.374746 -3.833358 7 36138ft 449kts
21-Sep-20 16:32 45.499018 -3.818796 7 36138ft 449kts
21-Sep-20 16:33 45.623265 -3.803069 8 36134ft 449kts
21-Sep-20 16:34 45.747315 -3.784529 8 36107ft 449kts
21-Sep-20 16:35 45.871263 -3.766207 8 36086ft 449kts
21-Sep-20 16:36 45.995392 -3.747837 8 36084ft 449kts
21-Sep-20 16:37 46.118991 -3.729474 8 36084ft 449kts
21-Sep-20 16:38 46.243246 -3.711024 8 36084ft 449kts
21-Sep-20 16:39 46.367450 -3.696934 4 36083ft 451kts
21-Sep-20 16:40 46.492438 -3.691567 4 36083ft 451kts
21-Sep-20 16:41 46.617628 -3.686043 4 36084ft 451kts
21-Sep-20 16:42 46.742735 -3.680434 4 36084ft 451kts
21-Sep-20 16:43 46.867917 -3.674799 4 36084ft 451kts
21-Sep-20 16:44 47.004581 -3.668659 5 36085ft 444kts
21-Sep-20 16:45 47.402926 -3.650621 5 36084ft 440kts
21-Sep-20 16:46 47.773758 -3.628845 6 36084ft 440kts
21-Sep-20 16:47 48.109649 -3.613071 5 36085ft 441kts
21-Sep-20 16:48 48.231983 -3.607260 5 36077ft 441kts
21-Sep-20 16:49 48.396589 -3.599229 5 36029ft 441kts
21-Sep-20 16:50 48.518781 -3.592823 5 36012ft 441kts
21-Sep-20 16:51 48.641121 -3.586455 5 36010ft 441kts
21-Sep-20 16:52 48.763287 -3.580097 5 36010ft 441kts
21-Sep-20 16:53 48.885719 -3.573628 5 36010ft 441kts
21-Sep-20 16:54 49.007809 -3.567202 5 36011ft 439kts
21-Sep-20 16:55 49.128212 -3.560906 6 36012ft 429kts
21-Sep-20 16:56 49.246913 -3.554522 6 36010ft 428kts
21-Sep-20 16:57 49.365961 -3.548232 6 36010ft 428kts
21-Sep-20 16:58 49.484615 -3.542241 6 36010ft 428kts
21-Sep-20 16:59 49.603497 -3.536194 6 36015ft 428kts
21-Sep-20 17:00 49.722341 -3.530135 6 36032ft 428kts
21-Sep-20 17:01 49.841177 -3.523781 6 36052ft 428kts
21-Sep-20 17:02 49.959938 -3.517381 6 36055ft 428kts
21-Sep-20 17:03 50.078579 -3.510980 6 36055ft 428kts
21-Sep-20 17:04 50.197513 -3.504622 6 36056ft 428kts
21-Sep-20 17:05 50.316040 -3.498202 6 36056ft 428kts
21-Sep-20 17:06 50.434620 -3.487701 10 36056ft 425kts
21-Sep-20 17:07 50.551878 -3.467610 10 36055ft 425kts
21-Sep-20 17:08 50.669082 -3.447825 10 36055ft 425kts
21-Sep-20 17:09 50.786349 -3.427710 10 36055ft 425kts
21-Sep-20 17:10 50.903711 -3.407379 10 36055ft 425kts
21-Sep-20 17:11 51.021550 -3.386889 8 36055ft 430kts
21-Sep-20 17:12 51.189388 -3.357810 8 36055ft 432kts
21-Sep-20 17:13 51.511023 -3.300833 9 36055ft 432kts
21-Sep-20 17:14 51.627870 -3.280106 9 36035ft 422kts
21-Sep-20 17:15 51.744366 -3.261159 6 36030ft 423kts
21-Sep-20 17:16 51.861855 -3.252482 5 36029ft 424kts
21-Sep-20 17:17 51.979491 -3.243569 5 36029ft 424kts
21-Sep-20 17:18 52.096746 -3.234870 5 36029ft 424kts
21-Sep-20 17:19 52.214520 -3.225902 5 36029ft 424kts
21-Sep-20 17:20 52.331831 -3.216870 5 36029ft 424kts
21-Sep-20 17:21 52.449174 -3.207905 5 35145ft 424kts
21-Sep-20 17:22 52.568690 -3.198551 4 31456ft 435kts
21-Sep-20 17:23 52.682027 -3.189842 2 28288ft 433kts
21-Sep-20 17:24 52.802972 -3.180563 1 24256ft 444kts
21-Sep-20 17:25 52.926308 -3.170752 0 20515ft 437kts
21-Sep-20 17:26 53.044848 -3.161565 0 17616ft 424kts
21-Sep-20 17:27 53.161150 -3.152299 359 14883ft 413kts
21-Sep-20 17:28 53.269467 -3.143710 359 13633ft 366kts
21-Sep-20 17:29 53.363792 -3.136250 359 13103ft 313kts
21-Sep-20 17:30 53.423538 -3.045993 61 12119ft 306kts
21-Sep-20 17:31 53.464677 -2.924110 60 10987ft 295kts
21-Sep-20 17:32 53.505177 -2.806460 60 9829ft 286kts
21-Sep-20 17:33 53.536735 -2.690469 94 9079ft 265kts
21-Sep-20 17:34 53.544637 -2.567879 78 7577ft 276kts
21-Sep-20 17:35 53.561581 -2.439610 78 5570ft 278kts
21-Sep-20 17:36 53.577505 -2.315777 79 3593ft 263kts
21-Sep-20 17:37 53.591055 -2.208311 79 3495ft 216kts
21-Sep-20 17:38 53.599122 -2.108246 92 3498ft 217kts
21-Sep-20 17:39 53.583145 -2.018593 166 3507ft 213kts
21-Sep-20 17:40 53.526784 -2.008106 173 3485ft 183kts
21-Sep-20 17:41 53.479543 -2.016620 223 3514ft 183kts
21-Sep-20 17:42 53.447019 -2.082639 229 2914ft 183kts
21-Sep-20 17:43 53.417828 -2.142739 229 1979ft 140kts
21-Sep-20 17:44 53.393974 -2.191939 229 1324ft 136kts
21-Sep-20 17:45 53.370257 -2.240824 230 604ft 134kts
21-Sep-20 17:46 53.352930 -2.276988 245 259ft 28kts
21-Sep-20 17:47 53.353314 -2.281832 10 259ft 9kts
21-Sep-20 17:48 53.356111 -2.279247 51 259ft 15kts
21-Sep-20 17:50 53.357062 -2.274886 50 259ft 9kts
21-Sep-20 17:51 53.358991 -2.272290 351 259ft 9kts
21-Sep-20 17:52 53.360348 -2.272085 66 259ft 8kts

Navigation Log

Ident Type
Flight plan parsing failed, navigation log unavailable